sensor_id;sensor_type;location;lat;lon;timestamp;P1;durP1;ratioP1;P2;durP2;ratioP2
75932;SDS011;64803;52.356;5.310;2023-08-20T00:00:28;8.65;;;2.67;;
75932;SDS011;64803;52.356;5.310;2023-08-20T00:02:58;11.38;;;2.63;;
75932;SDS011;64803;52.356;5.310;2023-08-20T00:05:29;8.85;;;2.20;;
75932;SDS011;64803;52.356;5.310;2023-08-20T00:10:22;9.55;;;2.42;;
75932;SDS011;64803;52.356;5.310;2023-08-20T00:12:48;8.45;;;2.50;;
75932;SDS011;64803;52.356;5.310;2023-08-20T00:15:14;13.00;;;2.47;;
75932;SDS011;64803;52.356;5.310;2023-08-20T00:17:40;11.73;;;2.88;;
75932;SDS011;64803;52.356;5.310;2023-08-20T00:20:08;9.02;;;2.08;;
75932;SDS011;64803;52.356;5.310;2023-08-20T00:22:39;12.45;;;2.60;;
75932;SDS011;64803;52.356;5.310;2023-08-20T00:25:05;10.10;;;3.70;;
75932;SDS011;64803;52.356;5.310;2023-08-20T00:27:33;12.40;;;3.58;;
75932;SDS011;64803;52.356;5.310;2023-08-20T00:29:59;10.10;;;2.67;;
75932;SDS011;64803;52.356;5.310;2023-08-20T00:32:25;17.23;;;2.90;;
75932;SDS011;64803;52.356;5.310;2023-08-20T00:34:52;9.27;;;3.03;;
75932;SDS011;64803;52.356;5.310;2023-08-20T00:37:18;10.88;;;2.92;;
75932;SDS011;64803;52.356;5.310;2023-08-20T00:39:43;11.68;;;3.40;;
75932;SDS011;64803;52.356;5.310;2023-08-20T00:42:09;7.88;;;2.47;;
75932;SDS011;64803;52.356;5.310;2023-08-20T00:44:39;14.05;;;2.88;;
75932;SDS011;64803;52.356;5.310;2023-08-20T00:47:07;9.70;;;2.60;;
75932;SDS011;64803;52.356;5.310;2023-08-20T00:49:33;10.85;;;2.72;;
75932;SDS011;64803;52.356;5.310;2023-08-20T00:52:00;8.55;;;2.38;;
75932;SDS011;64803;52.356;5.310;2023-08-20T00:54:27;12.60;;;3.40;;
75932;SDS011;64803;52.356;5.310;2023-08-20T00:56:53;8.02;;;2.40;;
75932;SDS011;64803;52.356;5.310;2023-08-20T00:59:20;12.70;;;2.35;;
75932;SDS011;64803;52.356;5.310;2023-08-20T01:01:46;11.68;;;3.08;;
75932;SDS011;64803;52.356;5.310;2023-08-20T01:04:12;6.28;;;2.45;;
75932;SDS011;64803;52.356;5.310;2023-08-20T01:06:54;6.68;;;2.17;;
75932;SDS011;64803;52.356;5.310;2023-08-20T01:12:20;12.57;;;2.53;;
75932;SDS011;64803;52.356;5.310;2023-08-20T01:14:48;8.82;;;2.35;;
75932;SDS011;64803;52.356;5.310;2023-08-20T01:17:14;10.60;;;2.47;;
75932;SDS011;64803;52.356;5.310;2023-08-20T01:19:40;12.38;;;2.85;;
75932;SDS011;64803;52.356;5.310;2023-08-20T01:27:52;9.13;;;3.35;;
75932;SDS011;64803;52.356;5.310;2023-08-20T01:30:41;10.55;;;2.30;;
75932;SDS011;64803;52.356;5.310;2023-08-20T01:33:11;10.85;;;2.22;;
75932;SDS011;64803;52.356;5.310;2023-08-20T01:35:40;6.82;;;2.47;;
75932;SDS011;64803;52.356;5.310;2023-08-20T01:38:14;9.68;;;2.55;;
75932;SDS011;64803;52.356;5.310;2023-08-20T01:40:40;10.98;;;2.40;;
75932;SDS011;64803;52.356;5.310;2023-08-20T01:43:06;12.70;;;2.00;;
75932;SDS011;64803;52.356;5.310;2023-08-20T01:45:32;13.55;;;2.58;;
75932;SDS011;64803;52.356;5.310;2023-08-20T01:47:58;12.68;;;2.40;;
75932;SDS011;64803;52.356;5.310;2023-08-20T01:50:24;12.35;;;2.78;;
75932;SDS011;64803;52.356;5.310;2023-08-20T01:52:51;12.60;;;2.42;;
75932;SDS011;64803;52.356;5.310;2023-08-20T01:55:16;11.05;;;2.50;;
75932;SDS011;64803;52.356;5.310;2023-08-20T01:57:42;7.53;;;2.00;;
75932;SDS011;64803;52.356;5.310;2023-08-20T02:00:09;6.30;;;1.98;;
75932;SDS011;64803;52.356;5.310;2023-08-20T02:02:41;11.52;;;2.17;;
75932;SDS011;64803;52.356;5.310;2023-08-20T02:05:07;8.15;;;2.05;;
75932;SDS011;64803;52.356;5.310;2023-08-20T02:07:33;11.60;;;2.65;;
75932;SDS011;64803;52.356;5.310;2023-08-20T02:09:59;9.00;;;2.00;;
75932;SDS011;64803;52.356;5.310;2023-08-20T02:12:25;14.45;;;2.30;;
75932;SDS011;64803;52.356;5.310;2023-08-20T02:14:53;14.55;;;2.45;;
75932;SDS011;64803;52.356;5.310;2023-08-20T02:17:21;11.57;;;2.90;;
75932;SDS011;64803;52.356;5.310;2023-08-20T02:19:49;10.30;;;2.80;;
75932;SDS011;64803;52.356;5.310;2023-08-20T02:22:15;9.15;;;2.60;;
75932;SDS011;64803;52.356;5.310;2023-08-20T02:24:41;12.00;;;2.88;;
75932;SDS011;64803;52.356;5.310;2023-08-20T02:27:07;18.33;;;3.05;;
75932;SDS011;64803;52.356;5.310;2023-08-20T02:29:33;16.73;;;3.05;;
75932;SDS011;64803;52.356;5.310;2023-08-20T02:31:59;12.68;;;3.00;;
75932;SDS011;64803;52.356;5.310;2023-08-20T02:34:25;11.82;;;2.83;;
75932;SDS011;64803;52.356;5.310;2023-08-20T02:36:51;12.93;;;2.92;;
75932;SDS011;64803;52.356;5.310;2023-08-20T02:39:17;12.00;;;3.28;;
75932;SDS011;64803;52.356;5.310;2023-08-20T02:41:43;12.95;;;2.58;;
75932;SDS011;64803;52.356;5.310;2023-08-20T02:44:09;13.57;;;2.85;;
75932;SDS011;64803;52.356;5.310;2023-08-20T02:46:39;10.27;;;2.40;;
75932;SDS011;64803;52.356;5.310;2023-08-20T02:49:06;11.07;;;2.80;;
75932;SDS011;64803;52.356;5.310;2023-08-20T02:51:32;9.57;;;2.53;;
75932;SDS011;64803;52.356;5.310;2023-08-20T02:53:58;6.93;;;2.33;;
75932;SDS011;64803;52.356;5.310;2023-08-20T02:56:24;9.05;;;3.17;;
75932;SDS011;64803;52.356;5.310;2023-08-20T02:58:50;10.10;;;2.58;;
75932;SDS011;64803;52.356;5.310;2023-08-20T03:01:22;7.60;;;2.40;;
75932;SDS011;64803;52.356;5.310;2023-08-20T03:03:51;8.65;;;2.45;;
75932;SDS011;64803;52.356;5.310;2023-08-20T03:06:17;9.88;;;3.33;;
75932;SDS011;64803;52.356;5.310;2023-08-20T03:08:43;10.75;;;3.50;;
75932;SDS011;64803;52.356;5.310;2023-08-20T03:11:09;12.50;;;3.58;;
75932;SDS011;64803;52.356;5.310;2023-08-20T03:13:35;8.20;;;3.83;;
75932;SDS011;64803;52.356;5.310;2023-08-20T03:16:01;13.57;;;4.70;;
75932;SDS011;64803;52.356;5.310;2023-08-20T03:18:28;14.13;;;4.55;;
75932;SDS011;64803;52.356;5.310;2023-08-20T03:20:55;21.60;;;4.88;;
75932;SDS011;64803;52.356;5.310;2023-08-20T03:23:23;16.00;;;4.78;;
75932;SDS011;64803;52.356;5.310;2023-08-20T03:25:49;9.60;;;3.70;;
75932;SDS011;64803;52.356;5.310;2023-08-20T03:28:17;13.02;;;3.60;;
75932;SDS011;64803;52.356;5.310;2023-08-20T03:30:44;10.25;;;3.75;;
75932;SDS011;64803;52.356;5.310;2023-08-20T03:33:13;9.60;;;3.30;;
75932;SDS011;64803;52.356;5.310;2023-08-20T03:35:40;12.63;;;3.50;;
75932;SDS011;64803;52.356;5.310;2023-08-20T03:38:06;14.30;;;4.63;;
75932;SDS011;64803;52.356;5.310;2023-08-20T03:40:32;17.17;;;3.97;;
75932;SDS011;64803;52.356;5.310;2023-08-20T03:42:58;11.13;;;3.95;;
75932;SDS011;64803;52.356;5.310;2023-08-20T03:45:24;17.02;;;3.88;;
75932;SDS011;64803;52.356;5.310;2023-08-20T03:47:51;18.02;;;3.75;;
75932;SDS011;64803;52.356;5.310;2023-08-20T03:50:17;9.60;;;3.70;;
75932;SDS011;64803;52.356;5.310;2023-08-20T03:52:44;14.95;;;4.00;;
75932;SDS011;64803;52.356;5.310;2023-08-20T03:55:10;12.13;;;3.00;;
75932;SDS011;64803;52.356;5.310;2023-08-20T03:57:36;9.45;;;3.38;;
75932;SDS011;64803;52.356;5.310;2023-08-20T04:00:04;10.48;;;3.05;;
75932;SDS011;64803;52.356;5.310;2023-08-20T04:02:40;13.38;;;3.05;;
75932;SDS011;64803;52.356;5.310;2023-08-20T04:05:07;10.82;;;3.67;;
75932;SDS011;64803;52.356;5.310;2023-08-20T04:07:33;10.18;;;3.42;;
75932;SDS011;64803;52.356;5.310;2023-08-20T04:09:59;10.73;;;3.45;;
75932;SDS011;64803;52.356;5.310;2023-08-20T04:12:25;14.02;;;3.33;;
75932;SDS011;64803;52.356;5.310;2023-08-20T04:14:51;13.48;;;3.83;;
75932;SDS011;64803;52.356;5.310;2023-08-20T04:17:17;6.82;;;3.15;;
75932;SDS011;64803;52.356;5.310;2023-08-20T04:19:43;10.25;;;3.10;;
75932;SDS011;64803;52.356;5.310;2023-08-20T04:22:09;11.82;;;3.00;;
75932;SDS011;64803;52.356;5.310;2023-08-20T04:24:35;11.98;;;2.60;;
75932;SDS011;64803;52.356;5.310;2023-08-20T04:27:01;12.20;;;3.08;;
75932;SDS011;64803;52.356;5.310;2023-08-20T04:29:28;11.40;;;3.88;;
75932;SDS011;64803;52.356;5.310;2023-08-20T04:31:54;9.18;;;2.88;;
75932;SDS011;64803;52.356;5.310;2023-08-20T04:34:21;6.50;;;2.40;;
75932;SDS011;64803;52.356;5.310;2023-08-20T04:36:50;10.60;;;2.55;;
75932;SDS011;64803;52.356;5.310;2023-08-20T04:39:17;9.65;;;2.60;;
75932;SDS011;64803;52.356;5.310;2023-08-20T04:41:48;10.32;;;2.80;;
75932;SDS011;64803;52.356;5.310;2023-08-20T04:44:16;7.60;;;2.45;;
75932;SDS011;64803;52.356;5.310;2023-08-20T04:46:43;9.32;;;2.97;;
75932;SDS011;64803;52.356;5.310;2023-08-20T04:49:10;6.70;;;2.50;;
75932;SDS011;64803;52.356;5.310;2023-08-20T04:51:37;8.57;;;2.50;;
75932;SDS011;64803;52.356;5.310;2023-08-20T04:54:04;6.88;;;2.40;;
75932;SDS011;64803;52.356;5.310;2023-08-20T04:56:30;7.03;;;2.60;;
75932;SDS011;64803;52.356;5.310;2023-08-20T04:58:56;7.32;;;2.67;;
75932;SDS011;64803;52.356;5.310;2023-08-20T05:01:42;5.53;;;2.20;;
75932;SDS011;64803;52.356;5.310;2023-08-20T05:04:09;7.93;;;3.05;;
75932;SDS011;64803;52.356;5.310;2023-08-20T05:06:35;8.45;;;2.63;;
75932;SDS011;64803;52.356;5.310;2023-08-20T05:09:01;8.48;;;2.47;;
75932;SDS011;64803;52.356;5.310;2023-08-20T05:11:27;11.27;;;3.00;;
75932;SDS011;64803;52.356;5.310;2023-08-20T05:13:55;13.85;;;3.35;;
75932;SDS011;64803;52.356;5.310;2023-08-20T05:16:21;8.82;;;3.25;;
75932;SDS011;64803;52.356;5.310;2023-08-20T05:18:47;10.13;;;2.70;;
75932;SDS011;64803;52.356;5.310;2023-08-20T05:21:13;10.93;;;2.80;;
75932;SDS011;64803;52.356;5.310;2023-08-20T05:23:39;8.13;;;2.42;;
75932;SDS011;64803;52.356;5.310;2023-08-20T05:26:06;13.48;;;3.55;;
75932;SDS011;64803;52.356;5.310;2023-08-20T05:28:33;10.65;;;2.97;;
75932;SDS011;64803;52.356;5.310;2023-08-20T05:30:59;11.77;;;3.63;;
75932;SDS011;64803;52.356;5.310;2023-08-20T05:33:26;14.00;;;3.35;;
75932;SDS011;64803;52.356;5.310;2023-08-20T05:35:55;15.48;;;3.58;;
75932;SDS011;64803;52.356;5.310;2023-08-20T05:38:22;10.00;;;3.55;;
75932;SDS011;64803;52.356;5.310;2023-08-20T05:40:49;13.27;;;3.35;;
75932;SDS011;64803;52.356;5.310;2023-08-20T05:43:16;10.88;;;3.60;;
75932;SDS011;64803;52.356;5.310;2023-08-20T05:45:42;15.40;;;3.60;;
75932;SDS011;64803;52.356;5.310;2023-08-20T05:48:10;14.68;;;3.15;;
75932;SDS011;64803;52.356;5.310;2023-08-20T05:50:37;13.30;;;3.40;;
75932;SDS011;64803;52.356;5.310;2023-08-20T05:53:04;8.30;;;3.22;;
75932;SDS011;64803;52.356;5.310;2023-08-20T05:55:31;11.77;;;3.67;;
75932;SDS011;64803;52.356;5.310;2023-08-20T05:57:57;14.82;;;3.42;;
75932;SDS011;64803;52.356;5.310;2023-08-20T06:00:23;15.68;;;3.42;;
75932;SDS011;64803;52.356;5.310;2023-08-20T06:02:49;22.73;;;4.22;;
75932;SDS011;64803;52.356;5.310;2023-08-20T06:05:16;18.45;;;4.32;;
75932;SDS011;64803;52.356;5.310;2023-08-20T06:07:42;13.10;;;3.42;;
75932;SDS011;64803;52.356;5.310;2023-08-20T06:10:08;12.48;;;3.38;;
75932;SDS011;64803;52.356;5.310;2023-08-20T06:12:34;12.25;;;3.30;;
75932;SDS011;64803;52.356;5.310;2023-08-20T06:15:00;11.70;;;3.13;;
75932;SDS011;64803;52.356;5.310;2023-08-20T06:17:26;13.57;;;3.17;;
75932;SDS011;64803;52.356;5.310;2023-08-20T06:19:52;10.13;;;2.90;;
75932;SDS011;64803;52.356;5.310;2023-08-20T06:22:18;12.25;;;3.65;;
75932;SDS011;64803;52.356;5.310;2023-08-20T06:24:44;12.27;;;3.45;;
75932;SDS011;64803;52.356;5.310;2023-08-20T06:27:10;13.02;;;2.92;;
75932;SDS011;64803;52.356;5.310;2023-08-20T06:29:36;11.00;;;2.72;;
75932;SDS011;64803;52.356;5.310;2023-08-20T06:32:03;10.35;;;2.50;;
75932;SDS011;64803;52.356;5.310;2023-08-20T06:34:29;11.88;;;3.30;;
75932;SDS011;64803;52.356;5.310;2023-08-20T06:36:55;9.20;;;2.97;;
75932;SDS011;64803;52.356;5.310;2023-08-20T06:39:21;10.75;;;3.30;;
75932;SDS011;64803;52.356;5.310;2023-08-20T06:41:47;16.85;;;3.28;;
75932;SDS011;64803;52.356;5.310;2023-08-20T06:44:19;15.00;;;3.35;;
75932;SDS011;64803;52.356;5.310;2023-08-20T06:46:45;11.88;;;2.78;;
75932;SDS011;64803;52.356;5.310;2023-08-20T06:49:14;13.05;;;2.80;;
75932;SDS011;64803;52.356;5.310;2023-08-20T06:51:40;13.40;;;3.25;;
75932;SDS011;64803;52.356;5.310;2023-08-20T06:54:06;13.63;;;2.90;;
75932;SDS011;64803;52.356;5.310;2023-08-20T06:56:32;16.30;;;3.22;;
75932;SDS011;64803;52.356;5.310;2023-08-20T06:58:59;14.15;;;3.20;;
75932;SDS011;64803;52.356;5.310;2023-08-20T07:01:26;12.13;;;2.70;;
75932;SDS011;64803;52.356;5.310;2023-08-20T07:03:52;13.85;;;2.80;;
75932;SDS011;64803;52.356;5.310;2023-08-20T07:06:18;13.80;;;2.63;;
75932;SDS011;64803;52.356;5.310;2023-08-20T07:08:44;10.82;;;2.88;;
75932;SDS011;64803;52.356;5.310;2023-08-20T07:11:10;17.05;;;2.80;;
75932;SDS011;64803;52.356;5.310;2023-08-20T07:13:36;14.77;;;2.50;;
75932;SDS011;64803;52.356;5.310;2023-08-20T07:16:03;10.20;;;2.45;;
75932;SDS011;64803;52.356;5.310;2023-08-20T07:18:29;8.68;;;1.95;;
75932;SDS011;64803;52.356;5.310;2023-08-20T07:20:55;16.55;;;2.55;;
75932;SDS011;64803;52.356;5.310;2023-08-20T07:23:21;13.57;;;2.25;;
75932;SDS011;64803;52.356;5.310;2023-08-20T07:25:48;14.07;;;2.03;;
75932;SDS011;64803;52.356;5.310;2023-08-20T07:28:17;14.13;;;2.10;;
75932;SDS011;64803;52.356;5.310;2023-08-20T07:31:06;13.48;;;1.90;;
75932;SDS011;64803;52.356;5.310;2023-08-20T07:33:32;12.27;;;2.47;;
75932;SDS011;64803;52.356;5.310;2023-08-20T07:35:58;12.55;;;2.45;;
75932;SDS011;64803;52.356;5.310;2023-08-20T07:38:24;18.42;;;2.70;;
75932;SDS011;64803;52.356;5.310;2023-08-20T07:40:50;16.52;;;2.10;;
75932;SDS011;64803;52.356;5.310;2023-08-20T07:43:16;16.30;;;2.65;;
75932;SDS011;64803;52.356;5.310;2023-08-20T07:45:42;14.52;;;2.33;;
75932;SDS011;64803;52.356;5.310;2023-08-20T07:48:08;15.13;;;2.25;;
75932;SDS011;64803;52.356;5.310;2023-08-20T07:50:34;11.75;;;1.90;;
75932;SDS011;64803;52.356;5.310;2023-08-20T07:53:00;15.63;;;2.63;;
75932;SDS011;64803;52.356;5.310;2023-08-20T07:55:26;10.35;;;2.00;;
75932;SDS011;64803;52.356;5.310;2023-08-20T07:57:52;9.75;;;2.20;;
75932;SDS011;64803;52.356;5.310;2023-08-20T08:00:18;13.98;;;2.33;;
75932;SDS011;64803;52.356;5.310;2023-08-20T08:02:44;13.95;;;2.40;;
75932;SDS011;64803;52.356;5.310;2023-08-20T08:05:10;15.15;;;2.45;;
75932;SDS011;64803;52.356;5.310;2023-08-20T08:07:36;13.60;;;2.40;;
75932;SDS011;64803;52.356;5.310;2023-08-20T08:10:02;11.52;;;2.63;;
75932;SDS011;64803;52.356;5.310;2023-08-20T08:12:29;9.77;;;1.63;;
75932;SDS011;64803;52.356;5.310;2023-08-20T08:14:55;9.57;;;2.30;;
75932;SDS011;64803;52.356;5.310;2023-08-20T08:17:21;11.40;;;2.03;;
75932;SDS011;64803;52.356;5.310;2023-08-20T08:19:47;9.57;;;1.70;;
75932;SDS011;64803;52.356;5.310;2023-08-20T08:22:12;13.15;;;2.67;;
75932;SDS011;64803;52.356;5.310;2023-08-20T08:24:38;12.38;;;2.38;;
75932;SDS011;64803;52.356;5.310;2023-08-20T08:27:07;14.48;;;2.20;;
75932;SDS011;64803;52.356;5.310;2023-08-20T08:29:33;12.10;;;1.85;;
75932;SDS011;64803;52.356;5.310;2023-08-20T08:31:59;12.35;;;2.45;;
75932;SDS011;64803;52.356;5.310;2023-08-20T08:34:25;7.25;;;1.67;;
75932;SDS011;64803;52.356;5.310;2023-08-20T08:36:51;7.68;;;1.90;;
75932;SDS011;64803;52.356;5.310;2023-08-20T08:39:17;12.60;;;2.22;;
75932;SDS011;64803;52.356;5.310;2023-08-20T08:41:43;8.57;;;1.75;;
75932;SDS011;64803;52.356;5.310;2023-08-20T08:44:15;11.23;;;1.45;;
75932;SDS011;64803;52.356;5.310;2023-08-20T08:46:42;9.35;;;1.77;;
75932;SDS011;64803;52.356;5.310;2023-08-20T08:49:08;3.95;;;1.45;;
75932;SDS011;64803;52.356;5.310;2023-08-20T08:51:36;11.52;;;1.90;;
75932;SDS011;64803;52.356;5.310;2023-08-20T08:54:02;8.70;;;2.13;;
75932;SDS011;64803;52.356;5.310;2023-08-20T08:56:29;13.32;;;2.33;;
75932;SDS011;64803;52.356;5.310;2023-08-20T08:58:55;9.35;;;2.13;;
75932;SDS011;64803;52.356;5.310;2023-08-20T09:01:21;6.78;;;1.95;;
75932;SDS011;64803;52.356;5.310;2023-08-20T09:03:47;9.93;;;2.13;;
75932;SDS011;64803;52.356;5.310;2023-08-20T09:06:13;13.65;;;2.03;;
75932;SDS011;64803;52.356;5.310;2023-08-20T09:08:39;14.20;;;1.90;;
75932;SDS011;64803;52.356;5.310;2023-08-20T09:11:05;9.40;;;1.60;;
75932;SDS011;64803;52.356;5.310;2023-08-20T09:13:35;9.45;;;2.40;;
75932;SDS011;64803;52.356;5.310;2023-08-20T09:16:06;12.00;;;1.77;;
75932;SDS011;64803;52.356;5.310;2023-08-20T09:18:37;11.05;;;1.90;;
75932;SDS011;64803;52.356;5.310;2023-08-20T09:21:07;5.32;;;1.35;;
75932;SDS011;64803;52.356;5.310;2023-08-20T09:23:35;8.13;;;1.58;;
75932;SDS011;64803;52.356;5.310;2023-08-20T09:26:05;12.25;;;1.70;;
75932;SDS011;64803;52.356;5.310;2023-08-20T09:28:42;8.02;;;1.45;;
75932;SDS011;64803;52.356;5.310;2023-08-20T09:31:10;10.90;;;1.90;;
75932;SDS011;64803;52.356;5.310;2023-08-20T09:33:48;9.25;;;1.40;;
75932;SDS011;64803;52.356;5.310;2023-08-20T09:36:18;7.53;;;1.50;;
75932;SDS011;64803;52.356;5.310;2023-08-20T09:38:44;8.77;;;1.52;;
75932;SDS011;64803;52.356;5.310;2023-08-20T09:41:11;6.90;;;1.40;;
75932;SDS011;64803;52.356;5.310;2023-08-20T09:43:38;10.68;;;2.00;;
75932;SDS011;64803;52.356;5.310;2023-08-20T09:46:05;9.73;;;1.80;;
75932;SDS011;64803;52.356;5.310;2023-08-20T09:48:34;14.48;;;1.63;;
75932;SDS011;64803;52.356;5.310;2023-08-20T09:51:04;9.93;;;1.77;;
75932;SDS011;64803;52.356;5.310;2023-08-20T09:53:35;8.95;;;1.92;;
75932;SDS011;64803;52.356;5.310;2023-08-20T09:56:14;6.93;;;1.33;;
75932;SDS011;64803;52.356;5.310;2023-08-20T09:58:54;14.70;;;1.90;;
75932;SDS011;64803;52.356;5.310;2023-08-20T10:01:21;7.30;;;1.50;;
75932;SDS011;64803;52.356;5.310;2023-08-20T10:03:47;9.75;;;1.40;;
75932;SDS011;64803;52.356;5.310;2023-08-20T10:06:14;9.85;;;1.80;;
75932;SDS011;64803;52.356;5.310;2023-08-20T10:08:40;8.20;;;1.65;;
75932;SDS011;64803;52.356;5.310;2023-08-20T10:11:06;6.55;;;1.42;;
75932;SDS011;64803;52.356;5.310;2023-08-20T10:13:32;13.07;;;1.80;;
75932;SDS011;64803;52.356;5.310;2023-08-20T10:15:58;8.63;;;1.92;;
75932;SDS011;64803;52.356;5.310;2023-08-20T10:18:25;6.22;;;1.58;;
75932;SDS011;64803;52.356;5.310;2023-08-20T10:20:52;8.52;;;1.42;;
75932;SDS011;64803;52.356;5.310;2023-08-20T10:23:21;7.13;;;1.80;;
75932;SDS011;64803;52.356;5.310;2023-08-20T10:25:53;9.25;;;1.42;;
75932;SDS011;64803;52.356;5.310;2023-08-20T10:28:20;8.20;;;1.73;;
75932;SDS011;64803;52.356;5.310;2023-08-20T10:33:34;8.98;;;1.40;;
75932;SDS011;64803;52.356;5.310;2023-08-20T10:36:06;9.23;;;1.50;;
75932;SDS011;64803;52.356;5.310;2023-08-20T10:38:37;12.85;;;1.60;;
75932;SDS011;64803;52.356;5.310;2023-08-20T10:41:07;10.07;;;1.77;;
75932;SDS011;64803;52.356;5.310;2023-08-20T10:43:45;9.32;;;1.60;;
75932;SDS011;64803;52.356;5.310;2023-08-20T10:46:19;8.10;;;1.23;;
75932;SDS011;64803;52.356;5.310;2023-08-20T10:48:47;5.55;;;1.20;;
75932;SDS011;64803;52.356;5.310;2023-08-20T10:51:17;9.68;;;1.27;;
75932;SDS011;64803;52.356;5.310;2023-08-20T10:53:48;5.10;;;1.15;;
75932;SDS011;64803;52.356;5.310;2023-08-20T10:56:23;7.97;;;1.30;;
75932;SDS011;64803;52.356;5.310;2023-08-20T11:01:49;7.60;;;1.45;;
75932;SDS011;64803;52.356;5.310;2023-08-20T11:04:18;10.93;;;1.60;;
75932;SDS011;64803;52.356;5.310;2023-08-20T11:06:55;9.02;;;1.33;;
75932;SDS011;64803;52.356;5.310;2023-08-20T11:09:22;10.85;;;1.50;;
75932;SDS011;64803;52.356;5.310;2023-08-20T11:11:50;8.40;;;1.33;;
75932;SDS011;64803;52.356;5.310;2023-08-20T11:14:19;8.20;;;1.15;;
75932;SDS011;64803;52.356;5.310;2023-08-20T11:16:45;12.95;;;1.60;;
75932;SDS011;64803;52.356;5.310;2023-08-20T11:21:39;7.05;;;1.10;;
75932;SDS011;64803;52.356;5.310;2023-08-20T11:24:06;10.27;;;1.42;;
75932;SDS011;64803;52.356;5.310;2023-08-20T11:29:06;6.60;;;1.10;;
75932;SDS011;64803;52.356;5.310;2023-08-20T11:31:32;6.15;;;1.10;;
75932;SDS011;64803;52.356;5.310;2023-08-20T11:33:58;9.40;;;1.65;;
75932;SDS011;64803;52.356;5.310;2023-08-20T11:36:24;4.95;;;1.05;;
75932;SDS011;64803;52.356;5.310;2023-08-20T11:38:51;7.45;;;1.15;;
75932;SDS011;64803;52.356;5.310;2023-08-20T11:41:20;5.00;;;0.93;;
75932;SDS011;64803;52.356;5.310;2023-08-20T11:43:47;5.57;;;1.25;;
75932;SDS011;64803;52.356;5.310;2023-08-20T11:46:14;7.40;;;1.40;;
75932;SDS011;64803;52.356;5.310;2023-08-20T11:51:30;5.93;;;1.35;;
75932;SDS011;64803;52.356;5.310;2023-08-20T11:54:02;7.07;;;1.10;;
75932;SDS011;64803;52.356;5.310;2023-08-20T11:56:32;4.75;;;0.98;;
75932;SDS011;64803;52.356;5.310;2023-08-20T11:58:59;9.10;;;1.40;;
75932;SDS011;64803;52.356;5.310;2023-08-20T12:01:29;7.70;;;1.30;;
75932;SDS011;64803;52.356;5.310;2023-08-20T12:03:59;6.63;;;1.27;;
75932;SDS011;64803;52.356;5.310;2023-08-20T12:06:35;6.88;;;1.30;;
75932;SDS011;64803;52.356;5.310;2023-08-20T12:09:18;5.47;;;0.80;;
75932;SDS011;64803;52.356;5.310;2023-08-20T12:11:51;8.32;;;1.50;;
75932;SDS011;64803;52.356;5.310;2023-08-20T12:14:18;6.43;;;1.15;;
75932;SDS011;64803;52.356;5.310;2023-08-20T12:16:45;4.45;;;0.80;;
75932;SDS011;64803;52.356;5.310;2023-08-20T12:19:12;9.60;;;1.20;;
75932;SDS011;64803;52.356;5.310;2023-08-20T12:21:42;7.65;;;0.90;;
75932;SDS011;64803;52.356;5.310;2023-08-20T12:24:09;5.43;;;1.00;;
75932;SDS011;64803;52.356;5.310;2023-08-20T12:26:37;7.35;;;1.20;;
75932;SDS011;64803;52.356;5.310;2023-08-20T12:29:03;5.18;;;0.90;;
75932;SDS011;64803;52.356;5.310;2023-08-20T12:31:30;4.90;;;0.90;;
75932;SDS011;64803;52.356;5.310;2023-08-20T12:33:57;6.45;;;0.95;;
75932;SDS011;64803;52.356;5.310;2023-08-20T12:36:23;5.35;;;0.80;;
75932;SDS011;64803;52.356;5.310;2023-08-20T12:38:49;7.88;;;1.33;;
75932;SDS011;64803;52.356;5.310;2023-08-20T12:41:15;5.43;;;0.80;;
75932;SDS011;64803;52.356;5.310;2023-08-20T12:43:42;8.57;;;1.42;;
75932;SDS011;64803;52.356;5.310;2023-08-20T12:46:08;3.75;;;0.65;;
75932;SDS011;64803;52.356;5.310;2023-08-20T12:48:34;6.30;;;1.20;;
75932;SDS011;64803;52.356;5.310;2023-08-20T12:51:00;7.05;;;1.05;;
75932;SDS011;64803;52.356;5.310;2023-08-20T12:53:26;7.45;;;1.30;;
75932;SDS011;64803;52.356;5.310;2023-08-20T12:55:52;5.28;;;0.90;;
75932;SDS011;64803;52.356;5.310;2023-08-20T12:58:18;5.47;;;0.88;;
75932;SDS011;64803;52.356;5.310;2023-08-20T13:00:44;3.95;;;0.90;;
75932;SDS011;64803;52.356;5.310;2023-08-20T13:03:10;4.60;;;0.90;;
75932;SDS011;64803;52.356;5.310;2023-08-20T13:05:36;6.90;;;1.63;;
75932;SDS011;64803;52.356;5.310;2023-08-20T13:08:03;9.05;;;1.38;;
75932;SDS011;64803;52.356;5.310;2023-08-20T13:10:29;5.93;;;0.90;;
75932;SDS011;64803;52.356;5.310;2023-08-20T13:12:56;5.28;;;0.90;;
75932;SDS011;64803;52.356;5.310;2023-08-20T13:15:26;7.10;;;1.13;;
75932;SDS011;64803;52.356;5.310;2023-08-20T13:17:52;5.60;;;0.90;;
75932;SDS011;64803;52.356;5.310;2023-08-20T13:20:19;8.77;;;1.58;;
75932;SDS011;64803;52.356;5.310;2023-08-20T13:22:51;5.65;;;0.88;;
75932;SDS011;64803;52.356;5.310;2023-08-20T13:27:43;5.75;;;0.98;;
75932;SDS011;64803;52.356;5.310;2023-08-20T13:30:10;4.63;;;0.90;;
75932;SDS011;64803;52.356;5.310;2023-08-20T13:32:36;6.07;;;1.00;;
75932;SDS011;64803;52.356;5.310;2023-08-20T13:37:30;4.75;;;0.77;;
75932;SDS011;64803;52.356;5.310;2023-08-20T13:39:57;6.38;;;0.95;;
75932;SDS011;64803;52.356;5.310;2023-08-20T13:42:24;5.35;;;0.80;;
75932;SDS011;64803;52.356;5.310;2023-08-20T13:44:50;6.10;;;1.17;;
75932;SDS011;64803;52.356;5.310;2023-08-20T13:47:16;8.65;;;1.42;;
75932;SDS011;64803;52.356;5.310;2023-08-20T13:49:42;2.90;;;0.80;;
75932;SDS011;64803;52.356;5.310;2023-08-20T13:52:09;5.80;;;1.02;;
75932;SDS011;64803;52.356;5.310;2023-08-20T13:57:02;6.70;;;1.30;;
75932;SDS011;64803;52.356;5.310;2023-08-20T13:59:29;4.60;;;1.00;;
75932;SDS011;64803;52.356;5.310;2023-08-20T14:01:56;6.18;;;1.27;;
75932;SDS011;64803;52.356;5.310;2023-08-20T14:04:23;8.13;;;0.90;;
75932;SDS011;64803;52.356;5.310;2023-08-20T14:06:49;6.45;;;0.98;;
75932;SDS011;64803;52.356;5.310;2023-08-20T14:09:15;6.20;;;1.50;;
75932;SDS011;64803;52.356;5.310;2023-08-20T14:11:43;5.32;;;0.90;;
75932;SDS011;64803;52.356;5.310;2023-08-20T14:14:10;5.43;;;0.98;;
75932;SDS011;64803;52.356;5.310;2023-08-20T14:16:36;10.73;;;1.42;;
75932;SDS011;64803;52.356;5.310;2023-08-20T14:19:02;4.65;;;0.90;;
75932;SDS011;64803;52.356;5.310;2023-08-20T14:21:28;4.63;;;0.75;;
75932;SDS011;64803;52.356;5.310;2023-08-20T14:23:54;5.30;;;0.98;;
75932;SDS011;64803;52.356;5.310;2023-08-20T14:28:48;3.97;;;1.05;;
75932;SDS011;64803;52.356;5.310;2023-08-20T14:31:14;5.82;;;1.00;;
75932;SDS011;64803;52.356;5.310;2023-08-20T14:33:40;3.35;;;0.60;;
75932;SDS011;64803;52.356;5.310;2023-08-20T14:36:06;6.60;;;1.30;;
75932;SDS011;64803;52.356;5.310;2023-08-20T14:38:32;4.97;;;0.80;;
75932;SDS011;64803;52.356;5.310;2023-08-20T14:40:59;5.07;;;0.85;;
75932;SDS011;64803;52.356;5.310;2023-08-20T14:43:27;4.05;;;0.85;;
75932;SDS011;64803;52.356;5.310;2023-08-20T14:45:53;4.15;;;0.98;;
75932;SDS011;64803;52.356;5.310;2023-08-20T14:48:20;4.85;;;0.98;;
75932;SDS011;64803;52.356;5.310;2023-08-20T14:50:46;6.22;;;0.90;;
75932;SDS011;64803;52.356;5.310;2023-08-20T14:53:13;8.05;;;1.52;;
75932;SDS011;64803;52.356;5.310;2023-08-20T14:55:39;5.57;;;1.00;;
75932;SDS011;64803;52.356;5.310;2023-08-20T14:58:05;5.13;;;0.80;;
75932;SDS011;64803;52.356;5.310;2023-08-20T15:00:32;5.60;;;1.10;;
75932;SDS011;64803;52.356;5.310;2023-08-20T15:02:58;5.18;;;0.93;;
75932;SDS011;64803;52.356;5.310;2023-08-20T15:05:24;4.25;;;0.80;;
75932;SDS011;64803;52.356;5.310;2023-08-20T15:07:50;5.68;;;1.00;;
75932;SDS011;64803;52.356;5.310;2023-08-20T15:10:16;4.80;;;0.80;;
75932;SDS011;64803;52.356;5.310;2023-08-20T15:12:44;2.97;;;0.75;;
75932;SDS011;64803;52.356;5.310;2023-08-20T15:15:10;6.35;;;1.00;;